createdAt,value
2018-08-22T00:00:39.572Z,101438.05
2018-08-22T00:03:10.730Z,101438.58
2018-08-22T00:05:46.830Z,101435.19
2018-08-22T00:08:38.023Z,101429.70
2018-08-22T00:11:09.156Z,101429.23
2018-08-22T00:13:38.105Z,101433.52
2018-08-22T00:16:07.047Z,101431.13
2018-08-22T00:18:36.050Z,101426.19
2018-08-22T00:21:05.068Z,101422.94
2018-08-22T00:23:36.366Z,101424.82
2018-08-22T00:26:08.235Z,101423.11
2018-08-22T00:28:37.084Z,101418.81
2018-08-22T00:31:06.125Z,101422.25
2018-08-22T00:33:35.198Z,101419.84
2018-08-22T00:36:06.737Z,101415.22
2018-08-22T00:38:35.778Z,101410.06
2018-08-22T00:41:04.675Z,101408.18
2018-08-22T00:43:35.783Z,101410.11
2018-08-22T00:46:02.563Z,101407.54
2018-08-22T00:48:33.561Z,101402.08
2018-08-22T00:51:05.073Z,101399.17
2018-08-22T00:53:36.219Z,101391.80
2018-08-22T00:56:05.151Z,101393.85
2018-08-22T00:58:34.045Z,101393.34
2018-08-22T01:01:02.977Z,101393.89
2018-08-22T01:03:33.803Z,101391.14
2018-08-22T01:06:02.671Z,101394.58
2018-08-22T01:08:33.751Z,101390.30
2018-08-22T01:11:04.415Z,101388.92
2018-08-22T01:13:35.600Z,101387.12
2018-08-22T01:16:04.557Z,101390.63
2018-08-22T01:18:33.561Z,101391.32
2018-08-22T01:21:02.405Z,101398.86
2018-08-22T01:23:32.989Z,101394.15
2018-08-22T01:26:01.895Z,101395.61
2018-08-22T01:28:33.201Z,101394.06
2018-08-22T01:31:02.148Z,101396.29
2018-08-22T01:33:33.706Z,101393.72
2018-08-22T01:36:02.586Z,101395.47
2018-08-22T01:38:31.506Z,101386.89
2018-08-22T01:41:00.559Z,101387.58
2018-08-22T01:43:29.464Z,101386.23
2018-08-22T01:45:58.338Z,101382.12
2018-08-22T01:48:27.345Z,101379.72
2018-08-22T01:50:56.383Z,101382.31
2018-08-22T01:53:25.273Z,101385.40
2018-08-22T01:55:54.193Z,101379.40
2018-08-22T01:58:23.065Z,101372.37
2018-08-22T02:00:51.974Z,101372.03
2018-08-22T02:03:20.910Z,101375.12
2018-08-22T02:05:52.310Z,101371.00
2018-08-22T02:08:21.213Z,101369.80
2018-08-22T02:10:50.113Z,101362.34
2018-08-22T02:13:18.986Z,101362.75
2018-08-22T02:15:48.035Z,101360.38
2018-08-22T02:18:16.919Z,101362.95
2018-08-22T02:20:47.553Z,101359.94
2018-08-22T02:23:14.873Z,101358.46
2018-08-22T02:25:43.708Z,101354.89
2018-08-22T02:28:12.673Z,101351.80
2018-08-22T02:30:41.523Z,101350.46
2018-08-22T02:33:10.467Z,101349.42
2018-08-22T02:35:39.403Z,101350.99
2018-08-22T02:38:08.317Z,101342.94
2018-08-22T02:40:37.215Z,101349.27
2018-08-22T02:43:06.123Z,101345.53
2018-08-22T02:45:35.067Z,101351.16
2018-08-22T02:48:03.991Z,101349.13
2018-08-22T02:50:32.904Z,101347.41
2018-08-22T02:53:01.768Z,101348.78
2018-08-22T02:55:30.710Z,101345.37
2018-08-22T02:57:59.702Z,101352.91
2018-08-22T03:00:28.530Z,101346.69
2018-08-22T03:02:57.415Z,101343.06
2018-08-22T03:05:26.294Z,101343.99
2018-08-22T03:07:57.740Z,101345.52
2018-08-22T03:10:26.821Z,101343.30
2018-08-22T03:12:55.782Z,101340.41
2018-08-22T03:15:24.619Z,101343.31
2018-08-22T03:17:53.479Z,101346.24
2018-08-22T03:20:22.417Z,101345.05
2018-08-22T03:22:51.282Z,101337.12
2018-08-22T03:25:20.256Z,101340.56
2018-08-22T03:27:49.222Z,101334.59
2018-08-22T03:30:18.066Z,101337.16
2018-08-22T03:32:46.943Z,101332.70
2018-08-22T03:35:15.915Z,101340.75
2018-08-22T03:37:44.735Z,101335.95
2018-08-22T03:40:13.649Z,101330.97
2018-08-22T03:42:44.639Z,101328.91
2018-08-22T03:45:11.443Z,101331.47
2018-08-22T03:47:40.392Z,101326.69
2018-08-22T03:50:09.391Z,101328.92
2018-08-22T03:52:38.605Z,101320.01
2018-08-22T03:55:07.497Z,101317.80
2018-08-22T03:57:36.468Z,101318.14
2018-08-22T04:00:07.261Z,101311.97
2018-08-22T04:02:34.624Z,101315.41
2018-08-22T04:05:05.917Z,101312.81
2018-08-22T04:07:34.929Z,101314.03
2018-08-22T04:10:03.798Z,101315.41
2018-08-22T04:12:35.457Z,101314.87
2018-08-22T04:15:04.398Z,101315.55
2018-08-22T04:17:42.203Z,101316.08
2018-08-22T04:20:11.078Z,101317.97
2018-08-22T04:22:40.800Z,101318.12
2018-08-22T04:25:10.034Z,101316.40
2018-08-22T04:27:39.058Z,101319.83
2018-08-22T04:30:10.494Z,101318.28
2018-08-22T04:32:41.099Z,101323.25
2018-08-22T04:35:09.918Z,101323.76
2018-08-22T04:37:41.478Z,101322.90
2018-08-22T04:40:19.371Z,101324.11
2018-08-22T04:42:51.286Z,101324.63
2018-08-22T04:45:24.994Z,101328.55
2018-08-22T04:47:51.975Z,101331.47
2018-08-22T04:50:20.954Z,101329.40
2018-08-22T04:52:51.705Z,101328.89
2018-08-22T04:55:22.980Z,101331.97
2018-08-22T04:57:54.699Z,101326.83
2018-08-22T05:00:23.642Z,101334.72
2018-08-22T05:02:54.229Z,101329.76
2018-08-22T05:05:23.243Z,101331.47
2018-08-22T05:07:52.186Z,101328.19
2018-08-22T05:10:21.154Z,101325.66
2018-08-22T05:12:55.845Z,101322.91
2018-08-22T05:15:24.796Z,101330.62
2018-08-22T05:17:53.711Z,101328.91
2018-08-22T05:20:22.620Z,101330.42
2018-08-22T05:22:54.662Z,101332.14
2018-08-22T05:25:23.656Z,101333.34
2018-08-22T05:27:55.082Z,101328.95
2018-08-22T05:30:25.818Z,101329.08
2018-08-22T05:32:54.788Z,101332.34
2018-08-22T05:35:29.333Z,101331.66
2018-08-22T05:37:58.260Z,101330.62
2018-08-22T05:40:27.160Z,101335.61
2018-08-22T05:42:56.117Z,101337.48
2018-08-22T05:45:25.024Z,101339.20
2018-08-22T05:47:53.903Z,101342.29
2018-08-22T05:50:22.828Z,101341.09
2018-08-22T05:52:51.715Z,101342.06
2018-08-22T05:55:20.686Z,101341.23
2018-08-22T05:57:49.622Z,101345.69
2018-08-22T06:00:18.522Z,101339.14
2018-08-22T06:02:47.457Z,101336.89
2018-08-22T06:05:16.480Z,101337.55
2018-08-22T06:07:48.379Z,101327.56
2018-08-22T06:10:14.382Z,101330.95
2018-08-22T06:12:43.302Z,101332.66
2018-08-22T06:15:14.571Z,101332.27
2018-08-22T06:17:43.505Z,101333.13
2018-08-22T06:20:12.453Z,101330.83
2018-08-22T06:22:41.409Z,101318.37
2018-08-22T06:25:12.941Z,101322.59
2018-08-22T06:27:41.746Z,101321.09
2018-08-22T06:30:11.502Z,101322.59
2018-08-22T06:32:40.445Z,101318.53
2018-08-22T06:35:11.283Z,101318.76
2018-08-22T06:37:40.231Z,101319.66
2018-08-22T06:40:09.165Z,101321.59
2018-08-22T06:42:38.073Z,101314.14
2018-08-22T06:45:09.457Z,101316.22
2018-08-22T06:47:36.610Z,101305.81
2018-08-22T06:50:05.687Z,101309.27
2018-08-22T06:52:34.570Z,101303.95
2018-08-22T06:55:03.447Z,101316.02
2018-08-22T06:57:32.405Z,101312.20
2018-08-22T07:00:01.293Z,101313.66
2018-08-22T07:02:30.218Z,101315.53
2018-08-22T07:04:59.236Z,101310.67
2018-08-22T07:07:28.146Z,101310.58
2018-08-22T07:09:57.000Z,101307.77
2018-08-22T07:12:25.864Z,101307.31
2018-08-22T07:14:54.737Z,101309.80
2018-08-22T07:17:23.684Z,101307.59
2018-08-22T07:19:52.484Z,101305.34
2018-08-22T07:22:21.385Z,101308.69
2018-08-22T07:24:50.297Z,101306.09
2018-08-22T07:27:19.085Z,101307.59
2018-08-22T07:29:47.992Z,101313.00
2018-08-22T07:32:16.876Z,101303.50
2018-08-22T07:34:45.846Z,101313.70
2018-08-22T07:37:15.012Z,101319.97
2018-08-22T07:39:51.057Z,101316.26
2018-08-22T07:42:20.012Z,101316.27
2018-08-22T07:44:50.541Z,101315.06
2018-08-22T07:47:19.398Z,101314.77
2018-08-22T07:49:49.609Z,101315.93
2018-08-22T07:52:21.331Z,101316.59
2018-08-22T07:54:50.294Z,101311.00
2018-08-22T07:57:23.356Z,101307.54
2018-08-22T07:59:55.253Z,101304.80
2018-08-22T08:02:24.239Z,101313.95
2018-08-22T08:04:53.177Z,101311.64
2018-08-22T08:07:22.021Z,101312.00
2018-08-22T08:09:50.947Z,101309.16
2018-08-22T08:12:23.671Z,101308.58
2018-08-22T08:15:05.026Z,101303.50
2018-08-22T08:17:33.977Z,101305.81
2018-08-22T08:20:03.758Z,101309.77
2018-08-22T08:22:32.693Z,101307.45
2018-08-22T08:25:01.603Z,101308.34
2018-08-22T08:27:30.488Z,101303.52
2018-08-22T08:29:59.422Z,101304.03
2018-08-22T08:32:28.369Z,101308.55
2018-08-22T08:34:57.372Z,101303.92
2018-08-22T08:37:26.267Z,101299.73
2018-08-22T08:39:58.092Z,101292.47
2018-08-22T08:42:26.969Z,101294.82
2018-08-22T08:44:55.901Z,101290.08
2018-08-22T08:47:27.709Z,101299.52
2018-08-22T08:49:53.988Z,101296.50
2018-08-22T08:52:22.925Z,101297.75
2018-08-22T08:54:53.022Z,101288.95
2018-08-22T08:57:21.980Z,101284.48
2018-08-22T08:59:50.857Z,101285.05
2018-08-22T09:02:19.785Z,101288.67
2018-08-22T09:04:48.686Z,101282.04
2018-08-22T09:07:17.700Z,101283.45
2018-08-22T09:09:46.621Z,101284.26
2018-08-22T09:12:15.541Z,101285.88
2018-08-22T09:14:44.529Z,101288.64
2018-08-22T09:17:14.468Z,101282.27
2018-08-22T09:19:43.707Z,101280.17
2018-08-22T09:22:13.769Z,101281.93
2018-08-22T09:24:45.373Z,101274.24
2018-08-22T09:27:14.232Z,101274.82
2018-08-22T09:29:48.053Z,101279.52
2018-08-22T09:32:12.001Z,101279.67
2018-08-22T09:34:40.909Z,101278.78
2018-08-22T09:37:09.834Z,101284.69
2018-08-22T09:39:38.802Z,101278.94
2018-08-22T09:42:07.653Z,101270.92
2018-08-22T09:44:36.616Z,101269.25
2018-08-22T09:47:12.173Z,101274.53
2018-08-22T09:49:41.836Z,101270.87
2018-08-22T09:52:11.137Z,101262.50
2018-08-22T09:55:03.515Z,101272.81
2018-08-22T09:57:32.538Z,101261.14
2018-08-22T10:00:01.461Z,101256.34
2018-08-22T10:02:30.313Z,101254.39
2018-08-22T10:04:59.597Z,101256.84
2018-08-22T10:07:28.574Z,101252.19
2018-08-22T10:09:57.488Z,101254.78
2018-08-22T10:12:26.385Z,101252.91
2018-08-22T10:14:55.369Z,101247.89
2018-08-22T10:17:24.373Z,101242.70
2018-08-22T10:19:53.070Z,101245.02
2018-08-22T10:22:21.984Z,101239.98
2018-08-22T10:24:50.918Z,101249.62
2018-08-22T10:27:19.745Z,101237.33
2018-08-22T10:29:48.766Z,101233.63
2018-08-22T10:32:17.648Z,101237.89
2018-08-22T10:34:46.557Z,101235.97
2018-08-22T10:37:15.799Z,101229.32
2018-08-22T10:39:44.771Z,101225.05
2018-08-22T10:42:13.536Z,101231.98
2018-08-22T10:44:45.544Z,101223.95
2018-08-22T10:47:14.448Z,101226.33
2018-08-22T10:49:43.394Z,101225.02
2018-08-22T10:52:12.408Z,101229.16
2018-08-22T10:54:41.254Z,101228.58
2018-08-22T10:57:10.138Z,101225.00
2018-08-22T10:59:39.035Z,101223.63
2018-08-22T11:02:07.902Z,101232.55
2018-08-22T11:04:36.796Z,101226.30
2018-08-22T11:07:05.757Z,101230.88
2018-08-22T11:09:34.670Z,101220.30
2018-08-22T11:12:03.638Z,101216.80
2018-08-22T11:14:32.498Z,101211.89
2018-08-22T11:17:01.417Z,101213.13
2018-08-22T11:19:30.294Z,101210.60
2018-08-22T11:22:35.713Z,101211.34
2018-08-22T11:25:40.963Z,101215.56
2018-08-22T11:28:46.635Z,101212.51
2018-08-22T11:31:52.339Z,101213.20
2018-08-22T11:34:46.409Z,101213.91
2018-08-22T11:37:16.263Z,101217.79
2018-08-22T11:39:46.417Z,101215.11
2018-08-22T11:42:15.413Z,101214.58
2018-08-22T11:44:44.364Z,101214.24
2018-08-22T11:47:13.243Z,101210.77
2018-08-22T11:49:42.209Z,101213.76
2018-08-22T11:52:10.990Z,101222.56
2018-08-22T11:54:39.951Z,101225.08
2018-08-22T11:57:08.867Z,101220.70
2018-08-22T11:59:37.707Z,101214.64
2018-08-22T12:02:06.585Z,101214.40
2018-08-22T12:04:35.524Z,101214.48
2018-08-22T12:07:04.325Z,101216.26
2018-08-22T12:09:33.184Z,101224.52
2018-08-22T12:12:02.077Z,101219.87
2018-08-22T12:14:33.417Z,101213.63
2018-08-22T12:17:02.358Z,101219.06
2018-08-22T12:19:31.242Z,101214.59
2018-08-22T12:22:00.126Z,101222.02
2018-08-22T12:24:29.038Z,101219.53
2018-08-22T12:26:57.981Z,101207.74
2018-08-22T12:29:26.876Z,101210.40
2018-08-22T12:31:55.918Z,101202.63
2018-08-22T12:34:24.646Z,101201.78
2018-08-22T12:36:53.526Z,101199.92
2018-08-22T12:39:22.395Z,101207.19
2018-08-22T12:41:51.322Z,101207.48
2018-08-22T12:44:20.268Z,101209.81
2018-08-22T12:46:49.084Z,101204.66
2018-08-22T12:49:18.004Z,101204.38
2018-08-22T12:51:48.314Z,101201.82
2018-08-22T12:54:15.770Z,101208.15
2018-08-22T12:56:44.726Z,101206.29
2018-08-22T12:59:13.662Z,101202.80
2018-08-22T13:01:42.545Z,101199.59
2018-08-22T13:04:13.671Z,101195.96
2018-08-22T13:06:42.627Z,101197.56
2018-08-22T13:09:11.992Z,101195.55
2018-08-22T13:11:41.213Z,101193.95
2018-08-22T13:14:10.173Z,101183.80
2018-08-22T13:16:39.054Z,101186.72
2018-08-22T13:19:07.983Z,101193.61
2018-08-22T13:21:36.880Z,101191.54
2018-08-22T13:24:05.769Z,101201.19
2018-08-22T13:26:34.724Z,101183.33
2018-08-22T13:29:05.152Z,101181.80
2018-08-22T13:31:32.632Z,101177.20
2018-08-22T13:34:01.611Z,101183.42
2018-08-22T13:36:30.494Z,101186.27
2018-08-22T13:38:59.481Z,101178.56
2018-08-22T13:41:28.263Z,101175.11
2018-08-22T13:43:57.161Z,101171.95
2018-08-22T13:46:26.046Z,101166.83
2018-08-22T13:48:55.027Z,101163.34
2018-08-22T13:51:23.940Z,101174.05
2018-08-22T13:53:52.820Z,101173.82
2018-08-22T13:56:21.863Z,101179.55
2018-08-22T13:58:50.972Z,101174.00
2018-08-22T14:01:19.862Z,101167.34
2018-08-22T14:03:48.806Z,101171.52
2018-08-22T14:06:17.662Z,101169.69
2018-08-22T14:08:46.609Z,101174.27
2018-08-22T14:11:15.503Z,101165.47
2018-08-22T14:13:44.340Z,101167.93
2018-08-22T14:16:13.317Z,101167.89
2018-08-22T14:18:45.249Z,101164.77
2018-08-22T14:21:11.229Z,101159.95
2018-08-22T14:23:40.128Z,101157.11
2018-08-22T14:26:09.059Z,101152.92
2018-08-22T14:28:37.918Z,101153.03
2018-08-22T14:31:06.840Z,101150.81
2018-08-22T14:33:35.757Z,101152.99
2018-08-22T14:36:04.667Z,101160.83
2018-08-22T14:38:33.571Z,101160.50
2018-08-22T14:41:02.499Z,101148.73
2018-08-22T14:43:31.451Z,101162.15
2018-08-22T14:46:00.349Z,101159.26
2018-08-22T14:48:29.274Z,101163.95
2018-08-22T14:50:58.176Z,101155.73
2018-08-22T14:53:27.212Z,101152.94
2018-08-22T14:55:56.046Z,101152.41
2018-08-22T14:58:24.926Z,101155.71
2018-08-22T15:00:53.880Z,101156.61
2018-08-22T15:03:23.173Z,101162.30
2018-08-22T15:05:51.774Z,101155.86
2018-08-22T15:08:20.658Z,101147.95
2018-08-22T15:10:49.664Z,101150.33
2018-08-22T15:13:18.531Z,101145.16
2018-08-22T15:15:47.464Z,101140.26
2018-08-22T15:18:16.450Z,101143.22
2018-08-22T15:20:46.974Z,101143.94
2018-08-22T15:23:14.194Z,101144.25
2018-08-22T15:25:43.100Z,101141.47
2018-08-22T15:28:12.003Z,101140.82
2018-08-22T15:30:40.896Z,101146.89
2018-08-22T15:33:09.781Z,101142.76
2018-08-22T15:35:38.714Z,101146.16
2018-08-22T15:38:07.593Z,101148.79
2018-08-22T15:40:36.515Z,101144.49
2018-08-22T15:43:05.529Z,101142.08
2018-08-22T15:45:34.408Z,101132.86
2018-08-22T15:48:03.320Z,101136.42
2018-08-22T15:50:32.224Z,101136.59
2018-08-22T15:53:01.200Z,101138.12
2018-08-22T15:55:30.215Z,101139.16
2018-08-22T15:58:06.675Z,101132.88
2018-08-22T16:00:51.767Z,101130.33
2018-08-22T16:03:21.096Z,101131.34
2018-08-22T16:05:50.703Z,101126.47
2018-08-22T16:08:21.293Z,101132.38
2018-08-22T16:10:50.239Z,101131.02
2018-08-22T16:13:28.432Z,101124.63
2018-08-22T16:16:00.246Z,101132.02
2018-08-22T16:18:29.139Z,101130.32
2018-08-22T16:20:59.219Z,101127.91
2018-08-22T16:23:29.655Z,101127.81
2018-08-22T16:25:59.653Z,101120.72
2018-08-22T16:28:49.747Z,101123.05
2018-08-22T16:31:18.812Z,101120.05
2018-08-22T16:33:47.560Z,101118.84
2018-08-22T16:36:28.707Z,101115.89
2018-08-22T16:38:57.933Z,101112.88
2018-08-22T16:41:26.806Z,101115.05
2018-08-22T16:43:55.681Z,101107.17
2018-08-22T16:46:24.577Z,101112.13
2018-08-22T16:48:54.747Z,101114.91
2018-08-22T16:51:24.095Z,101109.05
2018-08-22T16:54:08.590Z,101114.13
2018-08-22T16:56:37.633Z,101115.41
2018-08-22T16:59:10.731Z,101100.69
2018-08-22T17:01:44.658Z,101105.13
2018-08-22T17:04:13.557Z,101099.02
2018-08-22T17:06:42.461Z,101103.73
2018-08-22T17:09:11.874Z,101102.80
2018-08-22T17:11:40.845Z,101102.80
2018-08-22T17:14:09.724Z,101100.80
2018-08-22T17:16:38.591Z,101100.94
2018-08-22T17:19:07.556Z,101097.00
2018-08-22T17:21:36.494Z,101091.80
2018-08-22T17:24:05.423Z,101102.30
2018-08-22T17:26:34.348Z,101090.26
2018-08-22T17:29:03.333Z,101102.72
2018-08-22T17:31:32.208Z,101103.19
2018-08-22T17:34:02.377Z,101103.73
2018-08-22T17:36:31.295Z,101107.75
2018-08-22T17:39:01.379Z,101100.37
2018-08-22T17:41:30.797Z,101102.06
2018-08-22T17:44:15.049Z,101104.77
2018-08-22T17:46:49.561Z,101103.02
2018-08-22T17:49:18.545Z,101100.73
2018-08-22T17:52:17.769Z,101102.50
2018-08-22T17:54:51.545Z,101105.16
2018-08-22T17:57:24.690Z,101104.16
2018-08-22T17:59:53.984Z,101107.87
2018-08-22T18:02:22.920Z,101100.22
2018-08-22T18:05:03.396Z,101103.94
2018-08-22T18:07:32.390Z,101111.73
2018-08-22T18:10:03.308Z,101107.27
2018-08-22T18:12:32.298Z,101105.12
2018-08-22T18:15:02.688Z,101108.14
2018-08-22T18:17:34.190Z,101105.58
2018-08-22T18:20:05.290Z,101109.96
2018-08-22T18:22:35.920Z,101115.58
2018-08-22T18:25:05.276Z,101110.65
2018-08-22T18:27:34.376Z,101112.11
2018-08-22T18:30:03.407Z,101116.94
2018-08-22T18:32:32.353Z,101119.37
2018-08-22T18:35:11.992Z,101119.31
2018-08-22T18:37:41.482Z,101117.04
2018-08-22T18:40:19.497Z,101118.70
2018-08-22T18:43:10.173Z,101118.04
2018-08-22T18:46:07.716Z,101126.62
2018-08-22T18:48:36.790Z,101131.38
2018-08-22T18:51:05.805Z,101126.96
2018-08-22T18:53:34.719Z,101136.59
2018-08-22T18:56:16.964Z,101134.66
2018-08-22T18:58:45.854Z,101135.13
2018-08-22T19:01:14.784Z,101141.34
2018-08-22T19:03:43.683Z,101143.19
2018-08-22T19:06:12.683Z,101140.56
2018-08-22T19:08:41.639Z,101140.88
2018-08-22T19:11:10.729Z,101141.34
2018-08-22T19:13:39.500Z,101137.93
2018-08-22T19:16:11.851Z,101139.77
2018-08-22T19:18:40.712Z,101141.59
2018-08-22T19:21:10.803Z,101147.73
2018-08-22T19:23:39.678Z,101148.33
2018-08-22T19:26:08.910Z,101147.48
2018-08-22T19:28:57.929Z,101145.11
2018-08-22T19:31:26.870Z,101141.37
2018-08-22T19:33:55.719Z,101144.78
2018-08-22T19:36:24.611Z,101149.70
2018-08-22T19:38:53.559Z,101148.18
2018-08-22T19:41:40.708Z,101148.52
2018-08-22T19:44:09.607Z,101148.73
2018-08-22T19:46:38.566Z,101147.64
2018-08-22T19:49:07.587Z,101145.86
2018-08-22T19:51:36.430Z,101151.36
2018-08-22T19:54:06.663Z,101160.05
2018-08-22T19:56:35.593Z,101155.27
2018-08-22T19:59:05.252Z,101152.58
2018-08-22T20:01:37.473Z,101157.98
2018-08-22T20:04:04.399Z,101159.69
2018-08-22T20:06:33.337Z,101155.09
2018-08-22T20:09:02.287Z,101159.20
2018-08-22T20:11:34.113Z,101156.20
2018-08-22T20:14:06.911Z,101156.81
2018-08-22T20:16:35.927Z,101158.56
2018-08-22T20:19:07.147Z,101153.21
2018-08-22T20:21:36.950Z,101158.44
2018-08-22T20:24:07.625Z,101162.62
2018-08-22T20:26:43.007Z,101162.92
2018-08-22T20:29:11.929Z,101165.42
2018-08-22T20:31:40.839Z,101170.03
2018-08-22T20:34:11.436Z,101173.97
2018-08-22T20:36:40.831Z,101175.75
2018-08-22T20:39:13.620Z,101181.70
2018-08-22T20:41:43.009Z,101182.77
2018-08-22T20:44:20.703Z,101181.13
2018-08-22T20:46:49.714Z,101176.37
2018-08-22T20:49:19.667Z,101182.76
2018-08-22T20:51:48.833Z,101175.83
2018-08-22T20:54:22.152Z,101179.03
2018-08-22T20:57:02.927Z,101177.77
2018-08-22T20:59:31.917Z,101173.06
2018-08-22T21:02:06.709Z,101177.48
2018-08-22T21:04:36.315Z,101183.09
2018-08-22T21:07:05.594Z,101186.89
2018-08-22T21:09:34.503Z,101183.38
2018-08-22T21:12:04.334Z,101185.45
2018-08-22T21:14:33.353Z,101187.11
2018-08-22T21:17:02.152Z,101185.54
2018-08-22T21:19:31.046Z,101180.27
2018-08-22T21:21:59.913Z,101184.59
2018-08-22T21:24:28.859Z,101184.01
2018-08-22T21:26:57.695Z,101180.24
2018-08-22T21:29:26.588Z,101182.37
2018-08-22T21:31:55.468Z,101182.56
2018-08-22T21:34:24.449Z,101175.42
2018-08-22T21:36:53.429Z,101181.49
2018-08-22T21:39:26.114Z,101175.73
2018-08-22T21:41:55.121Z,101181.98
2018-08-22T21:44:24.391Z,101183.28
2018-08-22T21:47:09.447Z,101179.16
2018-08-22T21:49:38.390Z,101180.08
2018-08-22T21:52:07.277Z,101178.37
2018-08-22T21:54:36.208Z,101175.98
2018-08-22T21:57:05.189Z,101179.78
2018-08-22T21:59:34.029Z,101177.73
2018-08-22T22:02:10.099Z,101180.38
2018-08-22T22:04:42.777Z,101178.07
2018-08-22T22:07:12.263Z,101179.87
2018-08-22T22:09:41.154Z,101178.45
2018-08-22T22:12:27.579Z,101179.31
2018-08-22T22:14:56.602Z,101173.94
2018-08-22T22:17:25.490Z,101178.12
2018-08-22T22:19:54.430Z,101176.53
2018-08-22T22:22:23.345Z,101176.07
2018-08-22T22:25:04.601Z,101173.84
2018-08-22T22:27:33.524Z,101173.20
2018-08-22T22:30:04.582Z,101173.66
2018-08-22T22:32:34.026Z,101169.27
2018-08-22T22:35:03.444Z,101170.05
2018-08-22T22:37:32.373Z,101174.23
2018-08-22T22:40:01.327Z,101171.91
2018-08-22T22:42:33.238Z,101171.95
2018-08-22T22:45:02.218Z,101171.80
2018-08-22T22:47:37.342Z,101171.64
2018-08-22T22:50:04.307Z,101171.02
2018-08-22T22:52:40.878Z,101168.45
2018-08-22T22:55:10.601Z,101176.95
2018-08-22T22:57:43.338Z,101174.27
2018-08-22T23:00:18.952Z,101168.28
2018-08-22T23:03:07.689Z,101170.06
2018-08-22T23:05:36.569Z,101168.04
2018-08-22T23:08:05.489Z,101162.57
2018-08-22T23:10:34.426Z,101160.39
2018-08-22T23:13:05.923Z,101158.50
2018-08-22T23:15:34.803Z,101159.02
2018-08-22T23:18:03.778Z,101156.13
2018-08-22T23:20:36.626Z,101154.45
2018-08-22T23:23:37.564Z,101151.03
2018-08-22T23:26:20.744Z,101146.80
2018-08-22T23:28:52.386Z,101145.22
2018-08-22T23:31:21.557Z,101138.17
2018-08-22T23:33:50.617Z,101141.31
2018-08-22T23:36:19.524Z,101138.59
2018-08-22T23:38:48.410Z,101130.93
2018-08-22T23:41:17.277Z,101130.12
2018-08-22T23:43:50.950Z,101138.02
2018-08-22T23:46:20.059Z,101132.20
2018-08-22T23:48:56.267Z,101126.59
2018-08-22T23:51:25.216Z,101123.72
2018-08-22T23:53:58.167Z,101134.68
2018-08-22T23:56:30.965Z,101136.39
2018-08-22T23:59:00.276Z,101134.69
